Time;durP1;ratioP1;P1;durP2;ratioP2;P2;SDS_P1;SDS_P2;PMS_P1;PMS_P2;Temp;Humidity;BMP_temperature;BMP_pressure;BME280_temperature;BME280_humidity;BME280_pressure;Samples;Min_cycle;Max_cycle;Signal;HPM_P1;HPM_P2
2022/04/18 00:00:00;;;;;;;3.65;1.98;;;;;;;3.66;66.86;100578.22;1686818;83;21251;-75
2022/04/18 00:02:26;;;;;;;3.60;2.12;;;;;;;3.69;66.90;100572.52;1681961;83;21137;-75
2022/04/18 00:04:53;;;;;;;3.98;2.10;;;;;;;3.71;66.86;100573.61;1681433;83;21494;-75
2022/04/18 00:07:20;;;;;;;3.50;2.08;;;;;;;3.74;66.83;100560.78;1685170;83;21113;-75
2022/04/18 00:09:47;;;;;;;3.70;2.20;;;;;;;3.79;66.75;100563.33;1686889;83;21182;-75
2022/04/18 00:12:15;;;;;;;3.58;2.37;;;;;;;3.77;66.52;100566.16;1665440;83;20995;-75
2022/04/18 00:14:42;;;;;;;3.65;2.20;;;;;;;3.74;66.45;100562.63;1686392;83;21660;-75
2022/04/18 00:17:10;;;;;;;3.25;2.10;;;;;;;3.75;66.41;100563.75;1680214;83;21046;-76
2022/04/18 00:19:38;;;;;;;3.25;2.17;;;;;;;3.78;66.27;100565.13;1684441;83;21102;-76
2022/04/18 00:22:05;;;;;;;3.25;2.00;;;;;;;3.84;66.15;100561.64;1685750;83;21115;-75
2022/04/18 00:24:34;;;;;;;3.42;1.92;;;;;;;3.86;65.84;100556.17;1687445;83;21052;-76
2022/04/18 00:27:02;;;;;;;3.70;2.00;;;;;;;3.90;65.60;100553.39;1648763;84;21014;-75
2022/04/18 00:29:30;;;;;;;3.85;2.15;;;;;;;3.91;65.38;100557.12;1700814;83;21644;-76
2022/04/18 00:31:58;;;;;;;3.25;1.82;;;;;;;3.92;65.25;100550.84;1700842;83;21035;-76
2022/04/18 00:34:26;;;;;;;3.20;1.85;;;;;;;3.92;65.06;100548.20;1696191;83;21034;-75
2022/04/18 00:36:53;;;;;;;3.47;1.90;;;;;;;3.92;64.91;100547.39;1695114;83;21177;-76
2022/04/18 00:39:21;;;;;;;3.02;1.90;;;;;;;3.91;64.77;100546.55;1688512;83;21711;-76
2022/04/18 00:41:50;;;;;;;3.15;1.90;;;;;;;3.90;64.56;100548.11;1660287;84;21135;-75
2022/04/18 00:44:17;;;;;;;3.08;2.10;;;;;;;3.87;64.33;100542.73;1650626;84;21083;-77
2022/04/18 00:46:45;;;;;;;4.70;2.00;;;;;;;3.85;64.30;100538.19;1660060;83;22811;-77
2022/04/18 00:49:14;;;;;;;2.60;1.72;;;;;;;3.84;64.31;100536.55;1686210;83;20967;-74
2022/04/18 00:51:41;;;;;;;2.90;1.90;;;;;;;3.82;64.35;100539.94;1685480;83;21089;-75
2022/04/18 00:54:08;;;;;;;3.30;1.90;;;;;;;3.80;64.43;100527.95;1687323;83;22316;-75
2022/04/18 00:56:36;;;;;;;2.45;1.47;;;;;;;3.79;64.44;100527.14;1680341;83;21688;-75
2022/04/18 00:59:03;;;;;;;2.55;1.60;;;;;;;3.77;63.58;100523.89;1686729;83;21575;-75
2022/04/18 01:01:30;;;;;;;2.27;1.40;;;;;;;3.73;63.40;100525.34;1666482;84;21019;-75
2022/04/18 01:03:58;;;;;;;2.20;1.25;;;;;;;3.67;63.27;100519.08;1688576;83;21566;-75
2022/04/18 01:06:25;;;;;;;2.10;1.10;;;;;;;3.65;63.24;100517.66;1686168;83;21082;-74
2022/04/18 01:08:53;;;;;;;1.95;1.00;;;;;;;3.61;62.91;100517.79;1694535;83;21672;-75
2022/04/18 01:11:19;;;;;;;1.45;0.90;;;;;;;3.55;62.21;100515.99;1696011;84;21095;-76
2022/04/18 01:13:54;;;;;;;2.25;1.05;;;;;;;3.53;61.93;100522.30;1675856;83;21091;-76
2022/04/18 01:16:31;;;;;;;2.05;1.30;;;;;;;3.52;61.52;100504.84;1645820;85;21020;-75
2022/04/18 01:18:59;;;;;;;2.83;1.70;;;;;;;3.51;61.58;100503.20;1672727;83;21457;-75
2022/04/18 01:21:28;;;;;;;2.47;1.60;;;;;;;3.52;62.07;100495.61;1651355;84;21058;-76
2022/04/18 01:23:57;;;;;;;2.45;1.80;;;;;;;3.53;62.57;100493.77;1655340;84;21113;-76
2022/04/18 01:29:18;;;;;;;2.87;1.70;;;;;;;3.50;63.24;100503.44;1651874;84;21158;-75
2022/04/18 01:31:46;;;;;;;2.87;1.70;;;;;;;3.49;63.50;100496.55;1667725;85;21579;-75
2022/04/18 01:34:13;;;;;;;2.87;1.90;;;;;;;3.47;63.62;100490.13;1657470;84;21043;-75
2022/04/18 01:36:39;;;;;;;2.52;1.50;;;;;;;3.49;63.51;100490.75;1664400;84;21128;-75
2022/04/18 01:39:09;;;;;;;2.33;1.50;;;;;;;3.49;63.34;100488.63;1662536;84;21023;-75
2022/04/18 01:41:39;;;;;;;2.17;1.20;;;;;;;3.47;63.11;100480.89;1685052;83;21019;-75
2022/04/18 01:44:06;;;;;;;1.70;1.20;;;;;;;3.48;62.97;100486.47;1687757;83;21647;-75
2022/04/18 01:46:35;;;;;;;2.10;1.20;;;;;;;3.50;62.81;100491.03;1679846;84;21020;-76
2022/04/18 01:49:02;;;;;;;1.90;1.10;;;;;;;3.52;62.56;100486.36;1686199;83;21143;-75
2022/04/18 01:51:30;;;;;;;2.33;1.30;;;;;;;3.52;62.13;100485.53;1688519;83;21144;-76
2022/04/18 01:53:59;;;;;;;2.10;1.20;;;;;;;3.50;61.84;100482.31;1685510;83;21164;-76
2022/04/18 01:56:25;;;;;;;2.42;1.47;;;;;;;3.49;61.87;100481.50;1678808;84;21031;-75
2022/04/18 01:58:52;;;;;;;2.27;1.32;;;;;;;3.47;61.92;100472.17;1653516;84;20964;-75
2022/04/18 02:01:19;;;;;;;2.45;1.52;;;;;;;3.48;62.12;100466.66;1664644;84;21222;-76
2022/04/18 02:03:46;;;;;;;2.65;1.80;;;;;;;3.48;62.16;100475.91;1665286;84;21020;-76
2022/04/18 02:06:15;;;;;;;2.58;1.72;;;;;;;3.49;62.31;100473.58;1664639;84;21071;-76
2022/04/18 02:08:41;;;;;;;3.20;2.17;;;;;;;3.51;62.42;100478.13;1663387;84;21081;-76
2022/04/18 02:11:10;;;;;;;3.58;2.33;;;;;;;3.51;62.56;100471.52;1655758;85;21632;-76
2022/04/18 02:13:39;;;;;;;4.12;2.60;;;;;;;3.53;62.66;100471.33;1681895;83;21065;-76
2022/04/18 02:16:09;;;;;;;3.45;2.40;;;;;;;3.55;62.68;100468.45;1682284;83;21078;-76
2022/04/18 02:18:38;;;;;;;5.37;3.65;;;;;;;3.57;62.77;100463.78;1687908;83;21656;-76
2022/04/18 02:21:05;;;;;;;7.58;5.22;;;;;;;3.61;62.83;100468.93;1682079;83;21450;-76
2022/04/18 02:23:32;;;;;;;10.40;7.53;;;;;;;3.64;62.96;100464.55;1681877;83;21075;-76
2022/04/18 02:25:59;;;;;;;9.38;6.70;;;;;;;3.68;63.15;100461.77;1686849;83;21268;-75
2022/04/18 02:28:27;;;;;;;8.15;6.15;;;;;;;3.71;63.28;100462.66;1665970;84;21111;-76
2022/04/18 02:30:55;;;;;;;7.58;4.78;;;;;;;3.69;63.41;100460.25;1685291;83;21050;-76
2022/04/18 02:33:22;;;;;;;4.92;3.27;;;;;;;3.68;63.54;100458.61;1682221;83;21026;-76
2022/04/18 02:35:51;;;;;;;4.65;2.90;;;;;;;3.68;63.65;100460.45;1685791;83;21198;-75
2022/04/18 02:38:17;;;;;;;5.60;3.17;;;;;;;3.69;63.87;100459.45;1655628;84;21719;-75
2022/04/18 02:40:46;;;;;;;6.03;3.45;;;;;;;3.73;64.14;100458.80;1682457;83;21029;-76
2022/04/18 02:43:13;;;;;;;6.92;3.25;;;;;;;3.76;64.56;100462.33;1681937;83;21107;-76
2022/04/18 02:45:42;;;;;;;8.23;3.83;;;;;;;3.78;64.97;100459.45;1681149;84;21122;-75
2022/04/18 02:48:13;;;;;;;6.95;4.25;;;;;;;3.77;65.31;100460.49;1669657;85;21013;-76
2022/04/18 02:50:42;;;;;;;7.62;4.58;;;;;;;3.76;65.55;100452.28;1670996;85;21156;-76
2022/04/18 02:53:09;;;;;;;6.65;3.70;;;;;;;3.74;65.76;100450.35;1678447;83;21573;-76
2022/04/18 02:55:38;;;;;;;8.55;4.35;;;;;;;3.74;65.92;100445.06;1685859;83;21017;-75
2022/04/18 02:58:05;;;;;;;8.38;3.87;;;;;;;3.70;66.14;100446.01;1693808;83;21062;-76
2022/04/18 03:00:35;;;;;;;6.78;4.25;;;;;;;3.71;66.27;100438.89;1699067;83;21032;-76
2022/04/18 03:03:02;;;;;;;8.48;4.67;;;;;;;3.71;66.36;100441.02;1698223;83;21540;-76
2022/04/18 03:05:32;;;;;;;6.80;3.92;;;;;;;3.69;66.51;100455.48;1700297;83;21001;-76
2022/04/18 03:08:00;;;;;;;8.08;3.98;;;;;;;3.67;66.58;100452.23;1684102;83;21656;-76
2022/04/18 03:13:18;;;;;;;8.08;4.08;;;;;;;3.63;66.69;100447.89;1682935;83;21051;-75
2022/04/18 03:15:46;;;;;;;6.92;4.20;;;;;;;3.69;66.60;100440.95;1685225;83;21583;-76
2022/04/18 03:18:13;;;;;;;7.92;4.10;;;;;;;3.69;66.58;100440.44;1682994;83;21059;-76
2022/04/18 03:20:42;;;;;;;7.05;4.12;;;;;;;3.70;66.53;100438.08;1682772;83;21066;-77
2022/04/18 03:23:11;;;;;;;7.00;4.62;;;;;;;3.70;66.52;100444.69;1679846;83;21043;-76
2022/04/18 03:25:43;;;;;;;6.80;4.25;;;;;;;3.71;66.40;100441.53;1676361;83;21118;-76
2022/04/18 03:28:12;;;;;;;9.15;4.58;;;;;;;3.71;66.20;100436.25;1679498;83;21535;-76
2022/04/18 03:30:39;;;;;;;8.35;4.28;;;;;;;3.71;66.16;100438.89;1657224;84;21194;-76
2022/04/18 03:33:07;;;;;;;8.15;4.62;;;;;;;3.71;66.05;100434.41;1658125;84;21053;-77
2022/04/18 03:35:34;;;;;;;9.38;4.58;;;;;;;3.72;66.13;100432.61;1643439;86;21504;-76
2022/04/18 03:40:46;;;;;;;7.55;4.08;;;;;;;3.69;66.20;100433.03;1669178;84;22610;-76
2022/04/18 03:43:13;;;;;;;5.53;3.75;;;;;;;3.70;66.23;100428.03;1684084;83;20996;-77
2022/04/18 03:45:40;;;;;;;6.70;3.70;;;;;;;3.72;66.16;100426.00;1656794;84;21154;-76
2022/04/18 03:48:07;;;;;;;6.78;3.70;;;;;;;3.73;66.11;100426.28;1664809;85;21062;-76
2022/04/18 03:50:35;;;;;;;6.10;3.05;;;;;;;3.76;66.12;100420.06;1667986;84;21075;-77
2022/04/18 03:53:04;;;;;;;5.08;3.40;;;;;;;3.78;66.03;100411.10;1733472;82;21086;-76
2022/04/18 03:55:36;;;;;;;5.00;2.87;;;;;;;3.82;65.91;100412.28;1664761;86;21179;-77
2022/04/18 03:58:05;;;;;;;3.45;2.30;;;;;;;3.82;65.76;100397.75;1704008;82;21588;-76
2022/04/18 04:00:34;;;;;;;4.50;2.40;;;;;;;3.80;65.57;100399.81;1681787;83;21057;-76
2022/04/18 04:03:01;;;;;;;3.90;2.33;;;;;;;3.79;65.36;100399.02;1682110;83;21541;-76
2022/04/18 04:05:29;;;;;;;3.75;2.40;;;;;;;3.78;65.39;100403.98;1679045;83;21165;-76
2022/04/18 04:07:57;;;;;;;4.35;2.40;;;;;;;3.75;65.43;100392.03;1690734;83;20975;-76
2022/04/18 04:10:29;;;;;;;3.92;2.45;;;;;;;3.75;65.53;100389.87;1684287;83;21100;-76
2022/04/18 04:12:58;;;;;;;4.45;2.60;;;;;;;3.73;65.54;100387.47;1680599;83;21049;-76
2022/04/18 04:15:43;;;;;;;3.30;2.00;;;;;;;3.72;65.58;100383.73;1686669;83;21093;-75
2022/04/18 04:18:13;;;;;;;3.60;2.40;;;;;;;3.71;65.61;100375.49;1683733;82;21710;-76
2022/04/18 04:20:40;;;;;;;4.65;2.30;;;;;;;3.72;65.57;100373.97;1656093;83;21639;-76
2022/04/18 04:23:09;;;;;;;2.98;2.05;;;;;;;3.74;65.56;100377.19;1681793;83;21040;-77
2022/04/18 04:25:37;;;;;;;4.28;2.35;;;;;;;3.73;65.57;100370.30;1682091;82;21129;-76
2022/04/18 04:28:06;;;;;;;4.67;2.77;;;;;;;3.75;65.55;100368.75;1675426;84;20971;-76
2022/04/18 04:30:32;;;;;;;4.47;2.83;;;;;;;3.78;65.61;100376.76;1675408;85;21329;-77
2022/04/18 04:33:01;;;;;;;5.80;3.17;;;;;;;3.78;65.47;100370.95;1678158;83;21015;-76
2022/04/18 04:35:29;;;;;;;6.10;3.52;;;;;;;3.76;65.44;100366.42;1684807;83;21090;-76
2022/04/18 04:38:04;;;;;;;4.90;2.92;;;;;;;3.75;65.53;100367.42;1656124;84;21083;-76
2022/04/18 04:40:48;;;;;;;6.27;3.43;;;;;;;3.82;65.69;100363.41;1693146;83;20991;-75
2022/04/18 04:43:16;;;;;;;7.28;3.90;;;;;;;3.87;65.77;100375.47;1680167;85;21238;-75
2022/04/18 04:45:46;;;;;;;6.92;3.80;;;;;;;3.91;65.81;100368.20;1666118;85;21075;-76
2022/04/18 04:48:22;;;;;;;7.62;4.20;;;;;;;3.96;65.85;100365.73;1656053;85;21683;-76
2022/04/18 04:50:51;;;;;;;7.35;4.53;;;;;;;4.00;65.78;100368.22;1658789;84;21131;-76
2022/04/18 04:53:19;;;;;;;9.45;5.58;;;;;;;4.05;65.63;100360.14;1665452;84;21070;-76
2022/04/18 04:55:48;;;;;;;9.68;5.70;;;;;;;4.07;65.42;100371.31;1650707;84;21213;-77
2022/04/18 04:58:16;;;;;;;13.35;6.62;;;;;;;4.06;65.26;100357.81;1654803;84;22000;-76
2022/04/18 05:00:47;;;;;;;11.22;5.37;;;;;;;4.05;65.26;100356.18;1650650;85;21066;-76
2022/04/18 05:03:32;;;;;;;15.23;7.75;;;;;;;4.07;65.33;100358.91;1648417;85;21075;-76
2022/04/18 05:05:58;;;;;;;12.15;6.72;;;;;;;4.08;65.26;100360.54;1649088;85;21364;-76
2022/04/18 05:08:27;;;;;;;12.98;6.65;;;;;;;4.09;65.24;100355.54;1643601;85;21164;-77
2022/04/18 05:10:59;;;;;;;11.40;6.47;;;;;;;4.11;65.25;100356.11;1648008;85;21125;-77
2022/04/18 05:13:27;;;;;;;12.07;4.97;;;;;;;4.14;65.26;100361.48;1647852;84;21825;-77
2022/04/18 05:15:54;;;;;;;11.28;5.67;;;;;;;4.14;65.12;100362.80;1652820;84;21074;-77
2022/04/18 05:18:22;;;;;;;8.58;5.20;;;;;;;4.16;64.95;100357.59;1640559;84;21095;-76
2022/04/18 05:20:50;;;;;;;8.68;5.12;;;;;;;4.16;64.83;100352.83;1683966;83;21124;-75
2022/04/18 05:23:21;;;;;;;9.55;5.40;;;;;;;4.13;64.78;100354.06;1680499;83;21561;-76
2022/04/18 05:25:52;;;;;;;9.25;5.00;;;;;;;4.15;64.81;100348.06;1682333;83;21479;-76
2022/04/18 05:28:19;;;;;;;10.05;5.30;;;;;;;4.17;64.81;100342.02;1655355;84;21056;-75
2022/04/18 05:30:49;;;;;;;10.20;5.33;;;;;;;4.23;65.00;100345.63;1666287;84;21475;-75
2022/04/18 05:33:17;;;;;;;11.43;4.90;;;;;;;4.32;65.10;100345.64;1678339;83;21253;-76
2022/04/18 05:35:58;;;;;;;9.70;5.08;;;;;;;4.38;64.73;100343.44;1702474;84;21011;-76
2022/04/18 05:38:27;;;;;;;10.58;5.50;;;;;;;4.40;64.51;100347.17;1701874;82;21103;-78
2022/04/18 05:40:55;;;;;;;8.23;5.20;;;;;;;4.43;64.49;100344.89;1686093;83;20952;-77
2022/04/18 05:47:24;;;;;;;9.78;6.05;;;;;;;4.47;64.29;100339.95;1682980;83;21282;-76
2022/04/18 05:49:52;;;;;;;12.03;6.70;;;;;;;4.43;64.10;100340.11;1670874;85;21071;-78
2022/04/18 05:52:19;;;;;;;11.93;7.70;;;;;;;4.38;64.30;100339.47;1639568;87;21043;-77
2022/04/18 05:54:48;;;;;;;11.40;7.45;;;;;;;4.41;64.38;100341.67;1683406;83;21114;-76
2022/04/18 05:57:15;;;;;;;10.08;6.33;;;;;;;4.44;64.36;100335.95;1665361;86;21055;-77
2022/04/18 05:59:50;;;;;;;8.85;5.60;;;;;;;4.52;64.42;100339.31;1699057;84;21155;-75
2022/04/18 06:02:19;;;;;;;9.88;6.75;;;;;;;4.56;64.40;100347.89;1662653;85;21020;-75
2022/04/18 06:04:54;;;;;;;10.05;6.75;;;;;;;4.65;64.18;100341.79;1670531;84;21009;-75
2022/04/18 06:07:39;;;;;;;9.63;6.33;;;;;;;4.72;63.91;100333.25;1726121;83;21025;-74
2022/04/18 06:10:24;;;;;;;11.38;5.55;;;;;;;4.78;63.59;100328.39;1687120;83;20972;-76
2022/04/18 06:12:54;;;;;;;8.25;5.25;;;;;;;4.82;62.89;100332.20;1664384;86;21272;-76
2022/04/18 06:15:21;;;;;;;8.98;5.70;;;;;;;4.86;62.65;100332.03;1636744;86;21023;-76
2022/04/18 06:17:49;;;;;;;8.55;5.50;;;;;;;4.92;62.62;100328.48;1652334;86;21086;-75
2022/04/18 06:20:17;;;;;;;8.48;5.40;;;;;;;5.00;62.30;100330.52;1665799;86;21554;-76
2022/04/18 06:22:46;;;;;;;7.08;4.90;;;;;;;5.07;61.82;100329.94;1667857;84;20985;-75
2022/04/18 06:25:15;;;;;;;9.48;4.65;;;;;;;5.17;61.55;100328.86;1734044;82;21104;-77
2022/04/18 06:27:42;;;;;;;10.93;4.80;;;;;;;5.30;61.19;100329.98;1698448;82;21079;-77
2022/04/18 06:30:09;;;;;;;9.50;4.70;;;;;;;5.38;60.46;100322.22;1685329;83;21059;-76
2022/04/18 06:32:41;;;;;;;;;;;;;;;5.49;60.07;100328.03;1643127;84;21051;-76
2022/04/18 06:35:10;;;;;;;9.05;4.60;;;;;;;5.53;59.71;100323.12;1658316;84;21148;-75
2022/04/18 06:37:38;;;;;;;8.25;4.60;;;;;;;5.57;59.45;100318.97;1688338;83;21035;-76
2022/04/18 06:40:10;;;;;;;8.33;4.45;;;;;;;5.68;59.18;100323.45;1661747;84;20983;-75
2022/04/18 06:42:39;;;;;;;7.62;5.08;;;;;;;5.80;58.88;100320.81;1664619;84;21077;-76
2022/04/18 06:45:14;;;;;;;6.62;4.92;;;;;;;5.90;58.46;100325.02;1663051;84;21015;-77
2022/04/18 06:47:40;;;;;;;8.05;5.47;;;;;;;5.94;57.75;100310.28;1666182;86;21114;-76
2022/04/18 06:50:12;;;;;;;8.77;5.10;;;;;;;6.03;57.67;100317.38;1664279;84;21113;-77
2022/04/18 06:52:49;;;;;;;6.80;4.08;;;;;;;6.17;57.44;100317.39;1628491;84;21066;-75
2022/04/18 06:55:25;;;;;;;6.67;3.98;;;;;;;6.28;57.05;100315.23;1620166;84;21071;-77
2022/04/18 06:57:53;;;;;;;6.55;3.50;;;;;;;6.36;56.00;100314.08;1683144;82;21145;-77
2022/04/18 07:00:21;;;;;;;5.05;3.17;;;;;;;6.42;56.00;100314.99;1657959;84;21586;-77
2022/04/18 07:02:50;;;;;;;5.00;3.40;;;;;;;6.47;55.68;100311.09;1663631;85;21220;-75
2022/04/18 07:05:16;;;;;;;4.95;3.15;;;;;;;6.52;55.61;100308.55;1664992;84;21105;-76
2022/04/18 07:07:43;;;;;;;6.83;3.50;;;;;;;6.56;55.02;100313.14;1666144;84;21061;-78
2022/04/18 07:10:11;;;;;;;5.55;3.62;;;;;;;6.53;54.72;100311.48;1693465;83;20988;-77
2022/04/18 07:12:39;;;;;;;5.62;3.72;;;;;;;6.46;54.53;100306.31;1699980;83;21021;-77
2022/04/18 07:15:10;;;;;;;5.22;3.22;;;;;;;6.33;55.09;100308.71;1663297;85;21088;-75
2022/04/18 07:17:37;;;;;;;4.00;2.85;;;;;;;6.27;55.61;100312.30;1695132;83;21138;-76
2022/04/18 07:20:09;;;;;;;4.70;2.75;;;;;;;6.21;55.74;100309.25;1687593;83;21543;-77
2022/04/18 07:22:39;;;;;;;3.98;2.80;;;;;;;6.21;55.39;100312.43;1659760;84;21675;-77
2022/04/18 07:25:09;;;;;;;4.37;3.27;;;;;;;6.23;55.83;100309.84;1666842;86;21036;-76
2022/04/18 07:27:37;;;;;;;4.85;3.40;;;;;;;6.34;55.49;100307.66;1698310;84;21139;-76
2022/04/18 07:30:07;;;;;;;6.10;3.45;;;;;;;6.38;55.18;100308.00;1665420;86;21043;-76
2022/04/18 07:32:41;;;;;;;6.12;3.30;;;;;;;6.38;55.00;100303.22;1674161;84;21075;-76
2022/04/18 07:35:11;;;;;;;4.10;3.02;;;;;;;6.46;55.18;100294.91;1699227;84;20992;-76
2022/04/18 07:38:48;;;;;;;4.70;3.30;;;;;;;6.55;54.56;100296.14;1702882;84;21034;-76
2022/04/18 07:40:14;;;;;;;4.85;3.27;;;;;;;6.62;54.52;100296.80;1697672;84;21195;-76
2022/04/18 07:42:40;;;;;;;5.20;3.08;;;;;;;6.70;54.53;100292.43;1694742;83;21106;-77
2022/04/18 07:45:09;;;;;;;4.50;3.15;;;;;;;6.80;54.25;100291.28;1689685;83;21565;-76
2022/04/18 07:47:37;;;;;;;5.78;3.60;;;;;;;6.85;54.10;100294.56;1664950;84;21074;-76
2022/04/18 07:50:07;;;;;;;4.58;3.27;;;;;;;6.87;54.19;100291.66;1666049;86;21174;-76
2022/04/18 07:52:34;;;;;;;4.78;2.87;;;;;;;6.90;54.22;100285.34;1663118;84;21186;-76
2022/04/18 07:55:07;;;;;;;5.05;2.77;;;;;;;6.93;53.18;100291.52;1694267;83;21605;-76
2022/04/18 07:57:37;;;;;;;3.33;2.08;;;;;;;6.88;52.61;100290.61;1661217;85;21158;-77
2022/04/18 08:00:11;;;;;;;3.30;1.90;;;;;;;6.85;51.93;100297.75;1688981;83;21131;-78
2022/04/18 08:02:42;;;;;;;3.62;2.22;;;;;;;6.81;51.63;100286.28;1693635;83;21056;-78
2022/04/18 08:05:11;;;;;;;3.92;2.65;;;;;;;6.77;51.86;100297.06;1691865;83;21491;-78
2022/04/18 08:07:40;;;;;;;5.22;3.08;;;;;;;6.75;52.04;100292.53;1692076;83;20980;-76
2022/04/18 08:10:09;;;;;;;5.92;3.95;;;;;;;6.83;52.26;100287.87;1683760;83;21058;-75
2022/04/18 08:12:37;;;;;;;5.50;3.60;;;;;;;6.92;52.33;100280.62;1670646;84;21058;-76
2022/04/18 08:15:12;;;;;;;5.50;3.25;;;;;;;6.91;52.35;100276.36;1634708;85;21020;-75
2022/04/18 08:17:40;;;;;;;5.55;2.98;;;;;;;6.87;51.89;100279.19;1630058;84;21257;-76
2022/04/18 08:20:09;;;;;;;4.60;2.92;;;;;;;6.92;52.03;100274.51;1683751;83;21165;-75
2022/04/18 08:22:41;;;;;;;4.83;2.98;;;;;;;7.06;52.12;100278.45;1660381;84;21074;-75
2022/04/18 08:25:28;;;;;;;4.00;2.67;;;;;;;7.11;52.13;100274.57;1688360;83;21043;-76
2022/04/18 08:27:59;;;;;;;5.70;3.37;;;;;;;7.13;50.80;100277.77;1674402;84;21218;-76
2022/04/18 08:30:27;;;;;;;4.20;2.83;;;;;;;7.09;50.89;100271.34;1683062;84;21181;-76
2022/04/18 08:32:58;;;;;;;4.30;3.02;;;;;;;7.15;50.38;100279.67;1666764;86;21124;-77
2022/04/18 08:35:24;;;;;;;4.65;3.17;;;;;;;7.16;50.30;100278.63;1671671;84;20979;-76
2022/04/18 08:37:51;;;;;;;4.65;3.30;;;;;;;7.18;50.46;100270.42;1660902;84;21075;-77
2022/04/18 08:40:18;;;;;;;4.03;2.80;;;;;;;7.24;50.46;100267.61;1665161;84;21644;-77
2022/04/18 08:42:47;;;;;;;5.67;3.50;;;;;;;7.28;50.28;100262.61;1686917;83;21383;-77
2022/04/18 08:45:14;;;;;;;5.95;3.87;;;;;;;7.18;50.59;100259.28;1683874;84;21492;-77
2022/04/18 08:53:16;;;;;;;3.92;2.70;;;;;;;7.14;51.09;100258.16;1671022;85;21096;-76
2022/04/18 08:55:42;;;;;;;4.28;2.65;;;;;;;7.14;51.03;100255.50;1687752;84;21153;-76
2022/04/18 08:58:27;;;;;;;4.90;2.60;;;;;;;7.15;50.85;100261.61;1678872;83;21046;-76
2022/04/18 09:00:56;;;;;;;5.25;2.92;;;;;;;7.10;51.16;100249.56;1685161;83;21127;-76
2022/04/18 09:03:28;;;;;;;4.37;3.08;;;;;;;7.13;51.63;100249.88;1679296;83;21066;-76
2022/04/18 09:06:13;;;;;;;5.50;3.72;;;;;;;7.17;51.33;100254.19;1684322;83;21131;-76
2022/04/18 09:08:51;;;;;;;5.65;3.60;;;;;;;7.19;51.25;100248.92;1682010;83;21162;-75
2022/04/18 09:11:33;;;;;;;5.60;3.52;;;;;;;7.24;51.31;100242.38;1679136;83;21118;-76
2022/04/18 09:14:12;;;;;;;4.97;3.70;;;;;;;7.34;51.47;100240.89;1684096;83;21051;-76
2022/04/18 09:16:41;;;;;;;5.85;3.55;;;;;;;7.40;50.80;100235.41;1686853;83;21167;-76
2022/04/18 09:19:13;;;;;;;5.33;3.85;;;;;;;7.40;50.55;100237.27;1664612;84;21092;-76
2022/04/18 09:22:00;;;;;;;6.45;3.70;;;;;;;7.40;50.51;100241.25;1662593;84;22046;-76
2022/04/18 09:24:35;;;;;;;4.60;3.17;;;;;;;7.35;50.45;100235.35;1664113;84;21102;-76
2022/04/18 09:27:29;;;;;;;3.92;2.60;;;;;;;7.35;50.43;100237.21;1666034;84;21099;-77
2022/04/18 09:30:11;;;;;;;3.83;2.40;;;;;;;7.41;50.01;100242.36;1680768;83;21019;-77
2022/04/18 09:32:57;;;;;;;3.90;2.47;;;;;;;7.40;49.42;100238.07;1657713;83;21015;-77
2022/04/18 09:35:35;;;;;;;5.25;3.60;;;;;;;7.36;49.34;100240.94;1680771;84;21357;-76
2022/04/18 09:38:14;;;;;;;5.53;3.72;;;;;;;7.27;49.92;100237.08;1684413;83;21095;-77
2022/04/18 09:40:40;;;;;;;6.00;4.20;;;;;;;7.21;50.26;100230.91;1665239;83;21027;-77
2022/04/18 09:43:07;;;;;;;6.08;3.80;;;;;;;7.15;50.33;100235.85;1614406;84;21090;-77
2022/04/18 09:45:37;;;;;;;5.85;3.83;;;;;;;7.13;50.71;100238.46;1660356;84;21128;-77
2022/04/18 09:48:05;;;;;;;6.22;4.15;;;;;;;7.12;50.68;100232.88;1685592;83;21763;-76
2022/04/18 09:53:21;;;;;;;7.50;4.45;;;;;;;7.22;51.16;100225.06;1685622;83;21146;-76
2022/04/18 09:55:54;;;;;;;7.92;4.50;;;;;;;7.31;51.48;100230.78;1684013;83;21541;-76
2022/04/18 09:58:21;;;;;;;7.97;4.97;;;;;;;7.39;51.17;100229.03;1682402;83;21176;-77
2022/04/18 10:00:50;;;;;;;8.25;4.75;;;;;;;7.44;51.04;100219.81;1682451;83;21185;-76
2022/04/18 10:03:19;;;;;;;7.58;4.92;;;;;;;7.49;50.86;100214.03;1687331;83;21622;-76
2022/04/18 10:05:48;;;;;;;8.50;5.03;;;;;;;7.57;51.00;100214.16;1682231;83;21123;-76
2022/04/18 10:08:15;;;;;;;8.15;5.05;;;;;;;7.63;50.71;100214.47;1676607;83;21045;-77
2022/04/18 10:10:42;;;;;;;6.97;5.30;;;;;;;7.64;51.20;100217.96;1642100;86;21523;-78
2022/04/18 10:13:10;;;;;;;5.70;3.95;;;;;;;7.72;50.96;100214.86;1677834;83;21119;-77
2022/04/18 10:15:39;;;;;;;6.50;4.17;;;;;;;7.88;50.27;100218.52;1681739;83;21110;-77
2022/04/18 10:18:10;;;;;;;7.25;4.50;;;;;;;8.03;49.62;100218.72;1680904;83;21126;-77
2022/04/18 10:21:10;;;;;;;7.12;4.15;;;;;;;8.16;49.16;100201.55;1683955;83;21074;-77
2022/04/18 10:24:07;;;;;;;5.65;3.67;;;;;;;8.25;48.64;100204.05;1687480;83;21116;-76
2022/04/18 10:27:02;;;;;;;5.97;3.25;;;;;;;8.41;47.85;100211.70;1691940;83;21120;-75
2022/04/18 10:29:50;;;;;;;5.62;3.45;;;;;;;8.55;47.18;100211.56;1677685;82;21086;-75
2022/04/18 10:32:24;;;;;;;5.08;3.50;;;;;;;8.63;47.04;100211.13;1656724;83;21677;-77
2022/04/18 10:35:00;;;;;;;4.58;3.00;;;;;;;8.72;46.91;100210.66;1680327;83;21063;-77
2022/04/18 10:37:29;;;;;;;5.05;3.05;;;;;;;8.76;46.62;100209.11;1695604;83;21075;-75
2022/04/18 10:39:59;;;;;;;4.40;2.72;;;;;;;8.76;46.52;100215.23;1692204;84;21130;-77
2022/04/18 10:42:38;;;;;;;3.87;2.80;;;;;;;8.75;46.98;100206.16;1703034;83;21069;-76
2022/04/18 10:45:14;;;;;;;5.07;3.20;;;;;;;8.61;46.95;100211.09;1583383;83;10000440;-77
2022/04/18 10:48:06;;;;;;;3.95;2.70;;;;;;;8.44;47.55;100219.19;1698865;83;21074;-76
2022/04/18 10:50:47;;;;;;;4.17;2.60;;;;;;;8.30;47.94;100220.61;1692216;84;21218;-75
2022/04/18 10:53:34;;;;;;;4.22;2.70;;;;;;;8.20;48.69;100222.11;1693675;84;21053;-75
2022/04/18 10:56:08;;;;;;;4.25;2.62;;;;;;;8.17;48.59;100225.26;1691114;82;21095;-76
2022/04/18 10:58:35;;;;;;;3.35;2.22;;;;;;;8.15;48.86;100219.91;1692858;83;21047;-78
2022/04/18 11:01:05;;;;;;;3.47;2.47;;;;;;;8.16;48.58;100206.87;1693296;84;21071;-75
2022/04/18 11:03:49;;;;;;;3.50;2.40;;;;;;;8.17;48.64;100203.98;1696578;83;21151;-76
2022/04/18 11:06:21;;;;;;;4.85;3.20;;;;;;;8.18;48.76;100206.91;1682562;84;21071;-76
2022/04/18 11:09:02;;;;;;;4.78;3.22;;;;;;;8.15;48.60;100211.92;1702335;82;21063;-77
2022/04/18 11:12:05;;;;;;;4.92;3.20;;;;;;;8.15;48.66;100210.06;1695230;83;21144;-76
2022/04/18 11:14:53;;;;;;;3.92;2.45;;;;;;;8.08;48.77;100214.77;1693956;84;21080;-76
2022/04/18 11:17:37;;;;;;;3.75;2.45;;;;;;;8.10;49.34;100209.22;1648082;84;21310;-76
2022/04/18 11:20:32;;;;;;;3.62;2.62;;;;;;;8.03;49.27;100204.09;1684690;83;21048;-76
2022/04/18 11:23:14;;;;;;;4.28;2.75;;;;;;;8.07;49.42;100205.20;1700037;82;21111;-76
2022/04/18 11:25:57;;;;;;;3.75;2.47;;;;;;;8.10;49.26;100204.70;1663419;84;21564;-76
2022/04/18 11:28:27;;;;;;;4.05;2.55;;;;;;;8.13;49.11;100202.08;1695776;82;21132;-76
2022/04/18 11:30:53;;;;;;;4.90;2.95;;;;;;;8.12;49.24;100213.22;1701874;84;21257;-76
2022/04/18 11:33:22;;;;;;;4.03;2.55;;;;;;;8.11;49.54;100213.48;1701680;83;21145;-75
2022/04/18 11:35:49;;;;;;;4.00;2.52;;;;;;;8.16;49.50;100195.73;1702154;84;21110;-76
2022/04/18 11:38:17;;;;;;;3.10;2.15;;;;;;;8.24;49.09;100203.78;1668565;84;21113;-76
2022/04/18 11:40:44;;;;;;;3.60;2.30;;;;;;;8.28;48.57;100196.90;1692430;84;21184;-76
2022/04/18 11:43:13;;;;;;;4.15;2.52;;;;;;;8.30;48.13;100196.13;1701881;82;21908;-76
2022/04/18 11:45:42;;;;;;;3.00;2.20;;;;;;;8.37;48.53;100190.61;1703139;82;21092;-76
2022/04/18 11:48:13;;;;;;;3.50;2.27;;;;;;;8.51;48.35;100182.52;1702187;84;21075;-76
2022/04/18 11:50:43;;;;;;;3.50;2.25;;;;;;;8.62;48.27;100182.91;1702134;84;21106;-76
2022/04/18 11:53:12;;;;;;;3.72;1.98;;;;;;;8.68;47.70;100175.21;1702936;84;21046;-77
2022/04/18 11:55:49;;;;;;;2.75;1.80;;;;;;;8.70;47.41;100193.61;1703457;82;21161;-77
2022/04/18 11:58:21;;;;;;;3.60;2.22;;;;;;;8.70;47.02;100189.62;1682971;84;21145;-76
2022/04/18 12:09:10;;;;;;;3.15;2.25;;;;;;;8.86;46.72;100176.70;1694697;84;21661;-74
2022/04/18 12:11:38;;;;;;;3.37;2.27;;;;;;;8.85;46.86;100175.61;1705494;82;21054;-75
2022/04/18 12:14:05;;;;;;;3.67;2.15;;;;;;;8.85;47.06;100179.61;1708165;82;21081;-76
2022/04/18 12:16:34;;;;;;;3.50;2.35;;;;;;;8.91;46.85;100170.60;1694634;84;21082;-74
2022/04/18 12:19:00;;;;;;;3.85;2.12;;;;;;;9.03;46.97;100159.24;1704430;83;22165;-76